sensor_id;sensor_type;location;lat;lon;timestamp;P1;durP1;ratioP1;P2;durP2;ratioP2
35312;SDS011;21425;50.454;30.466;2023-10-19T18:34:59;32.78;;;14.10;;
35312;SDS011;21425;50.454;30.466;2023-10-19T18:37:25;28.50;;;15.13;;
35312;SDS011;21425;50.454;30.466;2023-10-19T18:39:51;28.67;;;13.95;;
35312;SDS011;21425;50.454;30.466;2023-10-19T18:42:17;23.58;;;13.65;;
35312;SDS011;21425;50.454;30.466;2023-10-19T18:44:43;29.15;;;13.70;;
35312;SDS011;21425;50.454;30.466;2023-10-19T18:47:09;25.90;;;13.35;;
35312;SDS011;21425;50.454;30.466;2023-10-19T18:49:35;24.50;;;13.20;;
35312;SDS011;21425;50.454;30.466;2023-10-19T18:52:04;23.40;;;12.32;;
35312;SDS011;21425;50.454;30.466;2023-10-19T18:54:32;20.90;;;12.00;;
35312;SDS011;21425;50.454;30.466;2023-10-19T18:56:59;23.60;;;11.70;;
35312;SDS011;21425;50.454;30.466;2023-10-19T18:59:25;25.85;;;12.50;;
35312;SDS011;21425;50.454;30.466;2023-10-19T19:01:51;23.23;;;12.55;;
35312;SDS011;21425;50.454;30.466;2023-10-19T19:04:18;21.15;;;11.73;;
35312;SDS011;21425;50.454;30.466;2023-10-19T19:06:44;23.40;;;11.95;;
35312;SDS011;21425;50.454;30.466;2023-10-19T19:09:10;24.52;;;10.93;;
35312;SDS011;21425;50.454;30.466;2023-10-19T19:11:37;21.38;;;10.90;;
35312;SDS011;21425;50.454;30.466;2023-10-19T19:14:07;22.50;;;10.93;;
35312;SDS011;21425;50.454;30.466;2023-10-19T19:16:34;20.13;;;10.38;;
35312;SDS011;21425;50.454;30.466;2023-10-19T19:19:00;19.65;;;11.00;;
35312;SDS011;21425;50.454;30.466;2023-10-19T19:21:25;20.10;;;10.00;;
35312;SDS011;21425;50.454;30.466;2023-10-19T19:23:52;23.15;;;11.10;;
35312;SDS011;21425;50.454;30.466;2023-10-19T19:26:18;20.30;;;10.77;;
35312;SDS011;21425;50.454;30.466;2023-10-19T19:28:44;22.25;;;10.85;;
35312;SDS011;21425;50.454;30.466;2023-10-19T19:31:12;21.42;;;11.82;;
35312;SDS011;21425;50.454;30.466;2023-10-19T19:33:38;22.95;;;11.82;;
35312;SDS011;21425;50.454;30.466;2023-10-19T19:36:04;22.27;;;10.73;;
35312;SDS011;21425;50.454;30.466;2023-10-19T19:38:30;22.45;;;11.68;;
35312;SDS011;21425;50.454;30.466;2023-10-19T19:40:56;25.67;;;11.77;;
35312;SDS011;21425;50.454;30.466;2023-10-19T19:43:22;24.45;;;11.75;;
35312;SDS011;21425;50.454;30.466;2023-10-19T19:45:48;21.77;;;11.35;;
35312;SDS011;21425;50.454;30.466;2023-10-19T19:48:14;25.70;;;12.55;;
35312;SDS011;21425;50.454;30.466;2023-10-19T19:50:42;26.00;;;12.98;;
35312;SDS011;21425;50.454;30.466;2023-10-19T19:53:08;27.85;;;13.15;;
35312;SDS011;21425;50.454;30.466;2023-10-19T19:55:35;26.58;;;11.70;;
35312;SDS011;21425;50.454;30.466;2023-10-19T19:58:02;28.33;;;13.02;;
35312;SDS011;21425;50.454;30.466;2023-10-19T20:00:28;22.10;;;12.50;;
35312;SDS011;21425;50.454;30.466;2023-10-19T20:02:56;24.20;;;12.20;;
35312;SDS011;21425;50.454;30.466;2023-10-19T20:05:22;25.73;;;12.82;;
35312;SDS011;21425;50.454;30.466;2023-10-19T20:07:50;28.40;;;13.23;;
35312;SDS011;21425;50.454;30.466;2023-10-19T20:10:18;24.15;;;13.73;;
35312;SDS011;21425;50.454;30.466;2023-10-19T20:12:44;27.30;;;14.13;;
35312;SDS011;21425;50.454;30.466;2023-10-19T20:15:10;25.73;;;13.10;;
35312;SDS011;21425;50.454;30.466;2023-10-19T20:17:39;26.23;;;13.38;;
35312;SDS011;21425;50.454;30.466;2023-10-19T20:20:06;27.25;;;13.80;;
35312;SDS011;21425;50.454;30.466;2023-10-19T20:22:36;30.92;;;14.90;;
35312;SDS011;21425;50.454;30.466;2023-10-19T20:25:03;31.15;;;15.57;;
35312;SDS011;21425;50.454;30.466;2023-10-19T20:27:30;36.20;;;14.82;;
35312;SDS011;21425;50.454;30.466;2023-10-19T20:29:55;31.15;;;14.93;;
35312;SDS011;21425;50.454;30.466;2023-10-19T20:32:21;30.00;;;15.57;;
35312;SDS011;21425;50.454;30.466;2023-10-19T20:34:47;31.02;;;15.57;;
35312;SDS011;21425;50.454;30.466;2023-10-19T20:37:14;33.08;;;16.40;;
35312;SDS011;21425;50.454;30.466;2023-10-19T20:39:40;35.58;;;15.38;;
35312;SDS011;21425;50.454;30.466;2023-10-19T20:42:06;37.58;;;16.90;;
35312;SDS011;21425;50.454;30.466;2023-10-19T20:44:32;34.78;;;17.13;;
35312;SDS011;21425;50.454;30.466;2023-10-19T20:47:07;38.72;;;16.92;;
35312;SDS011;21425;50.454;30.466;2023-10-19T20:49:34;29.83;;;15.70;;
35312;SDS011;21425;50.454;30.466;2023-10-19T20:52:03;36.17;;;18.08;;
35312;SDS011;21425;50.454;30.466;2023-10-19T20:54:29;30.17;;;15.52;;
35312;SDS011;21425;50.454;30.466;2023-10-19T20:56:56;32.53;;;17.55;;
35312;SDS011;21425;50.454;30.466;2023-10-19T20:59:22;36.25;;;16.98;;
35312;SDS011;21425;50.454;30.466;2023-10-19T21:01:48;32.10;;;16.50;;
35312;SDS011;21425;50.454;30.466;2023-10-19T21:04:14;30.58;;;16.67;;
35312;SDS011;21425;50.454;30.466;2023-10-19T21:06:39;33.40;;;16.30;;
35312;SDS011;21425;50.454;30.466;2023-10-19T21:09:05;32.60;;;16.58;;
35312;SDS011;21425;50.454;30.466;2023-10-19T21:11:31;32.05;;;16.00;;
35312;SDS011;21425;50.454;30.466;2023-10-19T21:13:57;36.53;;;16.42;;
35312;SDS011;21425;50.454;30.466;2023-10-19T21:16:23;32.28;;;15.82;;
35312;SDS011;21425;50.454;30.466;2023-10-19T21:18:49;33.78;;;17.30;;
35312;SDS011;21425;50.454;30.466;2023-10-19T21:21:15;41.78;;;19.15;;
35312;SDS011;21425;50.454;30.466;2023-10-19T21:23:41;40.17;;;19.25;;
35312;SDS011;21425;50.454;30.466;2023-10-19T21:26:07;47.22;;;21.83;;
35312;SDS011;21425;50.454;30.466;2023-10-19T21:28:33;51.15;;;24.67;;
35312;SDS011;21425;50.454;30.466;2023-10-19T21:30:59;50.90;;;24.25;;
35312;SDS011;21425;50.454;30.466;2023-10-19T21:33:26;53.17;;;24.42;;
35312;SDS011;21425;50.454;30.466;2023-10-19T21:35:52;53.22;;;26.13;;
35312;SDS011;21425;50.454;30.466;2023-10-19T21:38:18;53.10;;;25.70;;
35312;SDS011;21425;50.454;30.466;2023-10-19T21:40:44;53.45;;;24.88;;
35312;SDS011;21425;50.454;30.466;2023-10-19T21:43:10;54.90;;;26.25;;
35312;SDS011;21425;50.454;30.466;2023-10-19T21:45:37;61.08;;;26.25;;
35312;SDS011;21425;50.454;30.466;2023-10-19T21:48:05;52.90;;;24.83;;
35312;SDS011;21425;50.454;30.466;2023-10-19T21:50:34;53.17;;;25.33;;
35312;SDS011;21425;50.454;30.466;2023-10-19T21:53:01;47.80;;;24.65;;
35312;SDS011;21425;50.454;30.466;2023-10-19T21:55:27;53.00;;;25.45;;
35312;SDS011;21425;50.454;30.466;2023-10-19T21:57:53;47.75;;;23.83;;
35312;SDS011;21425;50.454;30.466;2023-10-19T22:00:19;43.72;;;22.73;;
35312;SDS011;21425;50.454;30.466;2023-10-19T22:02:52;45.95;;;22.20;;
35312;SDS011;21425;50.454;30.466;2023-10-19T22:05:18;45.30;;;21.90;;
35312;SDS011;21425;50.454;30.466;2023-10-19T22:07:45;44.55;;;23.60;;
35312;SDS011;21425;50.454;30.466;2023-10-19T22:10:11;43.50;;;22.63;;
35312;SDS011;21425;50.454;30.466;2023-10-19T22:12:37;45.22;;;21.90;;
35312;SDS011;21425;50.454;30.466;2023-10-19T22:15:03;45.90;;;20.70;;
35312;SDS011;21425;50.454;30.466;2023-10-19T22:17:29;47.78;;;21.70;;
35312;SDS011;21425;50.454;30.466;2023-10-19T22:19:56;43.88;;;21.75;;
35312;SDS011;21425;50.454;30.466;2023-10-19T22:22:21;40.53;;;21.40;;
35312;SDS011;21425;50.454;30.466;2023-10-19T22:24:47;44.78;;;21.20;;
35312;SDS011;21425;50.454;30.466;2023-10-19T22:27:13;41.78;;;20.52;;
35312;SDS011;21425;50.454;30.466;2023-10-19T22:29:40;40.13;;;20.17;;
35312;SDS011;21425;50.454;30.466;2023-10-19T22:32:06;36.95;;;19.45;;
35312;SDS011;21425;50.454;30.466;2023-10-19T22:34:32;37.65;;;20.30;;
35312;SDS011;21425;50.454;30.466;2023-10-19T22:36:58;41.90;;;19.75;;
35312;SDS011;21425;50.454;30.466;2023-10-19T22:39:24;38.75;;;18.65;;
35312;SDS011;21425;50.454;30.466;2023-10-19T22:41:50;35.80;;;18.98;;
35312;SDS011;21425;50.454;30.466;2023-10-19T22:44:16;34.63;;;19.45;;
35312;SDS011;21425;50.454;30.466;2023-10-19T22:46:42;36.80;;;19.92;;
35312;SDS011;21425;50.454;30.466;2023-10-19T22:49:08;40.85;;;19.67;;
35312;SDS011;21425;50.454;30.466;2023-10-19T22:51:36;41.45;;;20.63;;
35312;SDS011;21425;50.454;30.466;2023-10-19T22:54:02;40.05;;;20.58;;
35312;SDS011;21425;50.454;30.466;2023-10-19T22:56:28;42.40;;;21.00;;
35312;SDS011;21425;50.454;30.466;2023-10-19T22:58:54;42.85;;;21.02;;
35312;SDS011;21425;50.454;30.466;2023-10-19T23:01:21;42.67;;;21.15;;
35312;SDS011;21425;50.454;30.466;2023-10-19T23:03:47;40.70;;;21.08;;
35312;SDS011;21425;50.454;30.466;2023-10-19T23:06:13;43.15;;;21.52;;
35312;SDS011;21425;50.454;30.466;2023-10-19T23:08:39;44.20;;;21.27;;
35312;SDS011;21425;50.454;30.466;2023-10-19T23:11:11;40.25;;;20.42;;
35312;SDS011;21425;50.454;30.466;2023-10-19T23:13:41;43.33;;;21.35;;
35312;SDS011;21425;50.454;30.466;2023-10-19T23:16:10;43.17;;;20.58;;
35312;SDS011;21425;50.454;30.466;2023-10-19T23:18:39;48.58;;;22.40;;
35312;SDS011;21425;50.454;30.466;2023-10-19T23:21:06;42.47;;;21.02;;
35312;SDS011;21425;50.454;30.466;2023-10-19T23:23:32;45.83;;;22.80;;
35312;SDS011;21425;50.454;30.466;2023-10-19T23:25:58;43.78;;;21.63;;
35312;SDS011;21425;50.454;30.466;2023-10-19T23:28:28;44.00;;;21.85;;
35312;SDS011;21425;50.454;30.466;2023-10-19T23:30:55;49.78;;;23.40;;
35312;SDS011;21425;50.454;30.466;2023-10-19T23:33:26;41.63;;;21.05;;
35312;SDS011;21425;50.454;30.466;2023-10-19T23:35:53;42.25;;;21.63;;
35312;SDS011;21425;50.454;30.466;2023-10-19T23:38:19;45.72;;;22.45;;
35312;SDS011;21425;50.454;30.466;2023-10-19T23:40:45;45.85;;;21.73;;
35312;SDS011;21425;50.454;30.466;2023-10-19T23:43:11;46.45;;;21.48;;
35312;SDS011;21425;50.454;30.466;2023-10-19T23:45:37;39.25;;;20.50;;
35312;SDS011;21425;50.454;30.466;2023-10-19T23:48:03;43.33;;;21.52;;
35312;SDS011;21425;50.454;30.466;2023-10-19T23:50:29;45.50;;;22.25;;
35312;SDS011;21425;50.454;30.466;2023-10-19T23:52:55;37.75;;;20.15;;
35312;SDS011;21425;50.454;30.466;2023-10-19T23:55:21;43.50;;;21.55;;
35312;SDS011;21425;50.454;30.466;2023-10-19T23:57:47;46.13;;;23.58;;
